createdAt,value
2019-06-10T00:01:31.461Z,98423.88
2019-06-10T00:06:37.511Z,98428.81
2019-06-10T00:11:43.572Z,98422.94
2019-06-10T00:16:50.821Z,98421.27
2019-06-10T00:21:57.400Z,98419.59
2019-06-10T00:27:05.498Z,98420.24
2019-06-10T00:32:12.718Z,98424.15
2019-06-10T00:37:16.824Z,98416.05
2019-06-10T00:42:23.173Z,98406.09
2019-06-10T00:47:30.790Z,98387.84
2019-06-10T00:52:35.703Z,98399.16
2019-06-10T00:57:41.817Z,98405.35
2019-06-10T01:02:48.049Z,98395.45
2019-06-10T01:07:53.311Z,98387.25
2019-06-10T01:13:00.838Z,98388.33
2019-06-10T01:18:07.564Z,98384.80
2019-06-10T01:23:15.599Z,98375.32
2019-06-10T01:28:21.998Z,98370.97
2019-06-10T01:33:27.838Z,98360.05
2019-06-10T01:38:33.142Z,98354.22
2019-06-10T01:43:40.650Z,98340.85
2019-06-10T01:48:48.220Z,98348.19
2019-06-10T01:53:52.263Z,98341.38
2019-06-10T01:58:57.509Z,98340.09
2019-06-10T02:04:02.790Z,98329.22
2019-06-10T02:09:09.675Z,98326.39
2019-06-10T02:14:17.860Z,98318.95
2019-06-10T02:19:23.014Z,98315.41
2019-06-10T02:24:31.314Z,98306.14
2019-06-10T02:29:35.920Z,98301.92
2019-06-10T02:35:00.882Z,98287.30
2019-06-10T02:39:48.445Z,98290.62
2019-06-10T02:44:54.238Z,98270.23
2019-06-10T02:50:04.551Z,98264.38
2019-06-10T02:55:07.266Z,98266.77
2019-06-10T03:00:20.875Z,98263.02
2019-06-10T03:05:24.961Z,98260.62
2019-06-10T03:10:31.053Z,98273.88
2019-06-10T03:15:36.120Z,98280.63
2019-06-10T03:20:42.616Z,98279.63
2019-06-10T03:25:59.027Z,98280.67
2019-06-10T03:31:06.193Z,98283.17
2019-06-10T03:36:13.313Z,98284.53
2019-06-10T03:41:18.876Z,98281.31
2019-06-10T03:46:26.906Z,98274.59
2019-06-10T03:51:33.333Z,98269.69
2019-06-10T03:56:39.576Z,98261.13
2019-06-10T04:01:47.306Z,98273.44
2019-06-10T04:06:53.368Z,98284.05
2019-06-10T04:11:58.748Z,98284.48
2019-06-10T04:17:04.555Z,98284.70
2019-06-10T04:22:12.936Z,98273.12
2019-06-10T04:27:17.786Z,98265.16
2019-06-10T04:32:24.556Z,98267.09
2019-06-10T04:37:32.327Z,98260.48
2019-06-10T04:42:37.271Z,98270.56
2019-06-10T04:47:43.259Z,98263.64
2019-06-10T04:52:49.359Z,98270.97
2019-06-10T04:57:55.620Z,98269.01
2019-06-10T05:03:02.900Z,98272.27
2019-06-10T05:08:08.186Z,98271.48
2019-06-10T05:13:15.537Z,98266.59
2019-06-10T05:18:25.122Z,98261.23
2019-06-10T05:23:32.972Z,98257.14
2019-06-10T05:28:37.914Z,98247.70
2019-06-10T05:33:43.319Z,98241.73
2019-06-10T05:38:48.807Z,98237.92
2019-06-10T05:43:54.260Z,98235.69
2019-06-10T05:48:59.742Z,98239.22
2019-06-10T05:54:05.514Z,98236.08
2019-06-10T05:59:12.067Z,98254.92
2019-06-10T06:04:17.434Z,98248.02
2019-06-10T06:09:25.124Z,98239.65
2019-06-10T06:14:32.230Z,98242.16
2019-06-10T06:19:38.870Z,98238.08
2019-06-10T06:24:44.204Z,98232.42
2019-06-10T06:29:52.326Z,98244.27
2019-06-10T06:34:56.971Z,98236.00
2019-06-10T06:40:02.920Z,98232.72
2019-06-10T06:45:09.198Z,98238.88
2019-06-10T06:50:14.674Z,98239.60
2019-06-10T06:55:19.913Z,98239.87
2019-06-10T07:00:53.051Z,98237.16
2019-06-10T07:05:43.444Z,98220.99
2019-06-10T07:10:49.103Z,98213.23
2019-06-10T07:15:54.388Z,98217.98
2019-06-10T07:21:02.683Z,98216.94
2019-06-10T07:26:07.999Z,98209.34
2019-06-10T07:31:23.204Z,98203.66
2019-06-10T07:36:23.319Z,98216.75
2019-06-10T07:41:27.781Z,98198.34
2019-06-10T07:46:36.053Z,98189.50
2019-06-10T07:51:42.128Z,98192.30
2019-06-10T07:56:50.514Z,98190.75
2019-06-10T08:01:55.354Z,98195.88
2019-06-10T08:07:03.183Z,98200.32
2019-06-10T08:12:08.081Z,98188.13
2019-06-10T08:17:14.414Z,98199.29
2019-06-10T08:22:31.240Z,98202.88
2019-06-10T08:27:27.589Z,98209.95
2019-06-10T08:32:33.553Z,98204.80
2019-06-10T08:37:40.778Z,98201.34
2019-06-10T08:42:47.336Z,98208.59
2019-06-10T08:47:54.183Z,98213.52
2019-06-10T08:53:10.325Z,98215.66
2019-06-10T08:58:06.992Z,98210.80
2019-06-10T09:03:12.695Z,98200.14
2019-06-10T09:08:18.441Z,98208.11
2019-06-10T09:13:23.739Z,98206.67
2019-06-10T09:18:29.791Z,98205.03
2019-06-10T09:23:35.041Z,98207.64
2019-06-10T09:28:41.534Z,98215.83
2019-06-10T09:33:50.854Z,98209.03
2019-06-10T09:38:55.662Z,98209.92
2019-06-10T09:44:03.206Z,98208.55
2019-06-10T09:49:08.490Z,98215.91
2019-06-10T09:54:15.345Z,98218.55
2019-06-10T09:59:23.467Z,98216.30
2019-06-10T10:04:28.659Z,98222.89
2019-06-10T10:09:36.983Z,98222.36
2019-06-10T10:14:44.777Z,98220.41
2019-06-10T10:19:50.340Z,98212.49
2019-06-10T10:24:56.995Z,98209.34
2019-06-10T10:30:03.853Z,98201.20
2019-06-10T10:35:09.367Z,98191.34
2019-06-10T10:40:14.753Z,98185.16
2019-06-10T10:45:22.675Z,98172.16
2019-06-10T10:50:28.321Z,98176.98
2019-06-10T10:55:33.534Z,98175.38
2019-06-10T11:00:49.263Z,98168.94
2019-06-10T11:06:00.525Z,98157.56
2019-06-10T11:11:05.154Z,98149.78
2019-06-10T11:16:10.681Z,98141.93
2019-06-10T11:21:16.002Z,98125.53
2019-06-10T11:26:22.822Z,98125.77
2019-06-10T11:31:28.264Z,98128.16
2019-06-10T11:36:33.510Z,98113.16
2019-06-10T11:41:39.275Z,98107.97
2019-06-10T11:46:44.541Z,98109.44
2019-06-10T11:51:52.637Z,98094.09
2019-06-10T11:56:58.571Z,98085.30
2019-06-10T12:02:06.065Z,98078.44
2019-06-10T12:07:12.925Z,98074.30
2019-06-10T12:12:17.906Z,98065.52
2019-06-10T12:17:40.946Z,98055.61
2019-06-10T12:22:32.954Z,98054.34
2019-06-10T12:27:37.704Z,98035.89
2019-06-10T12:32:43.826Z,98029.58
2019-06-10T12:37:49.448Z,98020.23
2019-06-10T12:42:57.752Z,98019.42
2019-06-10T12:48:06.283Z,98024.38
2019-06-10T12:53:12.497Z,98018.86
2019-06-10T12:58:17.565Z,97995.06
2019-06-10T13:03:23.638Z,97983.08
2019-06-10T13:08:33.045Z,97976.28
2019-06-10T13:13:38.131Z,97964.31
2019-06-10T13:18:43.691Z,97944.38
2019-06-10T13:23:48.950Z,97962.06
2019-06-10T13:28:54.271Z,97985.27
2019-06-10T13:34:05.125Z,97986.27
2019-06-10T13:39:10.467Z,97980.91
2019-06-10T13:44:16.977Z,97980.91
2019-06-10T13:49:25.463Z,97978.98
2019-06-10T13:54:30.035Z,97961.91
2019-06-10T13:59:35.294Z,97956.36
2019-06-10T14:04:42.367Z,97952.04
2019-06-10T14:09:47.781Z,97946.84
2019-06-10T14:14:54.555Z,97948.93
2019-06-10T14:20:00.167Z,97939.06
2019-06-10T14:25:11.421Z,97939.19
2019-06-10T14:30:17.184Z,97939.19
2019-06-10T14:35:22.789Z,97920.84
2019-06-10T14:40:32.293Z,97920.78
2019-06-10T14:45:37.025Z,97914.51
2019-06-10T14:50:43.432Z,97888.28
2019-06-10T14:55:48.965Z,97888.28
2019-06-10T15:00:54.801Z,97888.62
2019-06-10T15:06:02.910Z,97882.31
2019-06-10T15:11:07.616Z,97890.83
2019-06-10T15:16:14.276Z,97880.54
2019-06-10T15:21:19.560Z,97867.00
2019-06-10T15:26:26.005Z,97875.86
2019-06-10T15:31:31.309Z,97879.31
2019-06-10T15:36:36.575Z,97877.69
2019-06-10T15:41:43.019Z,97880.68
2019-06-10T15:46:48.524Z,97880.68
2019-06-10T15:51:55.022Z,97895.59
2019-06-10T15:57:02.985Z,97894.91
2019-06-10T16:02:08.391Z,97899.16
2019-06-10T16:07:15.898Z,97911.74
2019-06-10T16:12:24.912Z,97902.31
2019-06-10T16:17:30.019Z,97909.69
2019-06-10T16:22:35.288Z,97909.69
2019-06-10T16:27:48.510Z,97902.01
2019-06-10T16:32:47.482Z,97914.19
2019-06-10T16:37:56.542Z,97914.19
2019-06-10T16:43:00.057Z,97926.86
2019-06-10T16:48:05.857Z,97932.38
2019-06-10T16:53:13.446Z,97909.98
2019-06-10T16:58:18.359Z,97886.80
2019-06-10T17:03:26.750Z,97886.22
2019-06-10T17:08:33.504Z,97892.45
2019-06-10T17:13:38.218Z,97894.38
2019-06-10T17:18:44.318Z,97901.01
2019-06-10T17:23:52.434Z,97901.80
2019-06-10T17:28:57.961Z,97903.09
2019-06-10T17:34:03.502Z,97893.96
2019-06-10T17:39:09.736Z,97898.21
2019-06-10T17:44:15.007Z,97908.59
2019-06-10T17:49:22.606Z,97946.84
2019-06-10T17:54:28.282Z,97953.27
2019-06-10T17:59:35.373Z,97948.05
2019-06-10T18:04:42.090Z,97970.19
2019-06-10T18:09:47.477Z,97985.16
2019-06-10T18:14:52.732Z,98034.92
2019-06-10T18:19:57.980Z,98009.77
2019-06-10T18:25:03.309Z,97981.23
2019-06-10T18:30:13.306Z,97944.98
2019-06-10T18:35:17.882Z,97949.34
2019-06-10T18:40:23.537Z,97922.41
2019-06-10T18:45:29.807Z,97911.39
2019-06-10T18:50:36.704Z,97921.92
2019-06-10T18:55:43.761Z,97898.87
2019-06-10T19:00:59.157Z,97898.75
2019-06-10T19:05:56.073Z,97902.55
2019-06-10T19:11:02.381Z,97939.73
2019-06-10T19:16:07.854Z,97937.58
2019-06-10T19:21:13.343Z,97916.95
2019-06-10T19:26:18.676Z,97936.52
2019-06-10T19:31:24.916Z,97926.98
2019-06-10T19:36:31.492Z,97898.91
2019-06-10T19:41:38.749Z,97906.95
2019-06-10T19:46:44.076Z,97896.48
2019-06-10T19:51:49.255Z,97901.64
2019-06-10T19:56:54.572Z,97890.88
2019-06-10T20:01:59.822Z,97881.70
2019-06-10T20:07:05.161Z,97878.13
2019-06-10T20:12:12.491Z,97883.16
2019-06-10T20:17:17.781Z,97877.11
2019-06-10T20:22:23.200Z,97850.05
2019-06-10T20:27:28.449Z,97846.91
2019-06-10T20:32:33.824Z,97842.23
2019-06-10T20:37:39.602Z,97829.95
2019-06-10T20:42:44.972Z,97823.77
2019-06-10T20:47:53.090Z,97794.17
2019-06-10T20:53:11.084Z,97784.34
2019-06-10T20:58:07.324Z,97812.95
2019-06-10T21:03:11.337Z,97834.14
2019-06-10T21:08:16.954Z,97822.48
2019-06-10T21:13:22.662Z,97796.40
2019-06-10T21:18:28.037Z,97811.42
2019-06-10T21:23:33.327Z,97827.09
2019-06-10T21:28:38.850Z,97831.52
2019-06-10T21:33:47.368Z,97840.33
2019-06-10T21:38:55.407Z,97817.63
2019-06-10T21:43:59.671Z,97830.80
2019-06-10T21:49:05.089Z,97823.06
2019-06-10T21:54:12.006Z,97825.68
2019-06-10T21:59:17.319Z,97836.98
2019-06-10T22:04:22.610Z,97835.63
2019-06-10T22:09:27.740Z,97848.79
2019-06-10T22:14:33.288Z,97858.86
2019-06-10T22:19:38.540Z,97877.13
2019-06-10T22:24:44.690Z,97869.18
2019-06-10T22:29:51.221Z,97860.81
2019-06-10T22:34:57.306Z,97861.77
2019-06-10T22:40:03.262Z,97869.83
2019-06-10T22:45:08.915Z,97869.11
2019-06-10T22:50:15.016Z,97864.32
2019-06-10T22:55:20.430Z,97870.48
2019-06-10T23:00:25.682Z,97863.69
2019-06-10T23:05:33.095Z,97865.16
2019-06-10T23:10:37.921Z,97856.50
2019-06-10T23:15:43.184Z,97868.00
2019-06-10T23:20:49.210Z,97862.16
2019-06-10T23:25:56.013Z,97853.69
2019-06-10T23:31:02.441Z,97843.02
2019-06-10T23:36:08.341Z,97843.47
2019-06-10T23:41:13.629Z,97862.80
2019-06-10T23:46:18.878Z,97892.86
2019-06-10T23:51:24.138Z,97900.16
2019-06-10T23:56:29.396Z,97911.31
